Time;durP1;ratioP1;P1;durP2;ratioP2;P2;SDS_P1;SDS_P2;PMS_P1;PMS_P2;Temp;Humidity;BMP_temperature;BMP_pressure;BME280_temperature;BME280_humidity;BME280_pressure;Samples;Min_cycle;Max_cycle;Signal;HPM_P1;HPM_P2
2023/04/01 00:00:16;;;;;;;124.45;114.18;;;13.50;99.90;;;;;;4989795;28;20117;-88
2023/04/01 00:02:42;;;;;;;241.13;205.68;;;16.90;99.90;;;;;;4990770;28;20170;-87
2023/04/01 00:05:10;;;;;;;481.88;322.55;;;16.20;99.90;;;;;;4972826;28;20050;-88
2023/04/01 00:07:36;;;;;;;207.90;188.68;;;12.40;99.90;;;;;;4989548;28;20058;-87
2023/04/01 00:10:02;;;;;;;572.80;414.48;;;16.90;99.90;;;;;;4973762;28;20054;-88
2023/04/01 00:12:28;;;;;;;386.58;294.40;;;15.50;99.90;;;;;;4977253;28;20034;-88
2023/04/01 00:14:54;;;;;;;357.92;269.83;;;16.40;99.90;;;;;;4992862;28;20057;-88
2023/04/01 00:17:20;;;;;;;306.55;273.17;;;16.60;99.90;;;;;;4992692;28;20125;-88
2023/04/01 00:19:45;;;;;;;274.05;218.52;;;15.90;99.90;;;;;;4997510;28;20042;-88
2023/04/01 00:22:11;;;;;;;168.93;152.90;;;15.90;99.90;;;;;;4989836;28;20046;-89
2023/04/01 00:24:38;;;;;;;189.10;168.43;;;15.00;99.90;;;;;;5008103;28;20400;-89
2023/04/01 00:27:03;;;;;;;314.08;248.18;;;17.00;99.90;;;;;;4992744;28;20050;-90
2023/04/01 00:29:30;;;;;;;530.70;351.05;;;12.10;99.90;;;;;;4991491;28;20133;-89
2023/04/01 00:31:57;;;;;;;336.80;268.58;;;16.40;99.90;;;;;;5009324;28;20100;-89
2023/04/01 00:34:23;;;;;;;165.23;149.88;;;17.20;99.90;;;;;;4992630;28;20038;-89
2023/04/01 00:36:52;;;;;;;258.98;230.88;;;12.40;99.90;;;;;;4990928;28;20084;-89
2023/04/01 00:39:18;;;;;;;652.67;367.98;;;13.30;99.90;;;;;;4991688;28;20057;-89
2023/04/01 00:41:44;;;;;;;1113.13;444.70;;;16.80;99.90;;;;;;4991627;28;20052;-89
2023/04/01 00:44:25;;;;;;;407.45;274.13;;;15.90;99.90;;;;;;5000903;28;20501;-90
2023/04/01 00:46:52;;;;;;;207.93;173.50;;;14.50;99.90;;;;;;4989124;28;20506;-89
2023/04/01 00:49:21;;;;;;;288.60;246.63;;;12.40;99.90;;;;;;4973428;28;20070;-89
2023/04/01 00:51:50;;;;;;;567.38;376.23;;;16.70;99.90;;;;;;4987703;28;20042;-89
2023/04/01 00:54:18;;;;;;;284.33;222.63;;;17.10;99.90;;;;;;4973357;28;20042;-89
2023/04/01 00:56:58;;;;;;;503.35;329.17;;;16.60;99.90;;;;;;4992232;28;20425;-89
2023/04/01 00:59:29;;;;;;;1057.82;449.42;;;12.20;99.90;;;;;;4984555;28;20047;-89
2023/04/01 01:01:55;;;;;;;981.58;476.58;;;15.70;99.90;;;;;;4990331;28;20070;-89
2023/04/01 01:04:32;;;;;;;633.17;402.58;;;12.30;99.90;;;;;;5000385;28;20619;-89
2023/04/01 01:07:16;;;;;;;605.28;331.73;;;14.10;99.90;;;;;;4971329;28;20054;-87
2023/04/01 01:10:22;;;;;;;766.83;415.30;;;12.40;99.90;;;;;;4982732;28;20089;-87
2023/04/01 01:13:15;;;;;;;385.90;248.40;;;16.50;99.90;;;;;;5008754;28;20050;-87
2023/04/01 01:16:02;;;;;;;462.23;223.25;;;14.70;99.90;;;;;;4987770;28;20048;-87
2023/04/01 01:18:35;;;;;;;601.53;337.80;;;13.60;99.90;;;;;;4976561;28;20082;-87
2023/04/01 01:21:35;;;;;;;572.40;392.20;;;14.70;99.90;;;;;;4981387;28;20493;-87
2023/04/01 01:24:20;;;;;;;544.00;256.40;;;14.30;99.90;;;;;;4994860;28;20037;-87
2023/04/01 01:27:22;;;;;;;1999.90;608.88;;;13.20;99.90;;;;;;4982585;28;20064;-87
2023/04/01 01:30:03;;;;;;;540.10;316.83;;;13.90;99.90;;;;;;4980922;28;20045;-87
2023/04/01 01:32:47;;;;;;;765.78;325.95;;;16.10;99.90;;;;;;4992612;28;20529;-87
2023/04/01 01:35:24;;;;;;;726.83;315.85;;;16.50;99.90;;;;;;4991793;28;20112;-87
2023/04/01 01:38:25;;;;;;;1060.82;520.45;;;16.30;99.90;;;;;;4994020;28;20260;-87
2023/04/01 01:40:54;;;;;;;762.65;517.83;;;14.20;99.90;;;;;;4976593;28;20133;-87
2023/04/01 01:43:25;;;;;;;1141.05;496.70;;;13.60;99.90;;;;;;4992379;28;20042;-87
2023/04/01 01:45:55;;;;;;;404.98;285.90;;;14.10;99.90;;;;;;4991694;28;20044;-87
2023/04/01 01:48:23;;;;;;;945.90;446.83;;;12.60;99.90;;;;;;4995523;28;20087;-87
2023/04/01 01:50:49;;;;;;;733.85;382.75;;;12.70;99.90;;;;;;4979757;28;20501;-87
2023/04/01 01:53:15;;;;;;;208.00;186.75;;;13.20;99.90;;;;;;4975766;28;20042;-86
2023/04/01 01:55:44;;;;;;;551.35;311.52;;;16.90;99.90;;;;;;4987794;28;20038;-87
2023/04/01 01:58:18;;;;;;;249.95;206.05;;;13.80;99.90;;;;;;4993830;28;20046;-86
2023/04/01 02:00:50;;;;;;;523.63;313.25;;;16.80;99.90;;;;;;4996311;28;20068;-87
2023/04/01 02:03:17;;;;;;;347.30;196.02;;;12.30;99.90;;;;;;4993430;28;20445;-87
2023/04/01 02:05:43;;;;;;;837.47;471.10;;;14.50;99.90;;;;;;5009781;28;20553;-87
2023/04/01 02:08:18;;;;;;;764.75;398.45;;;14.20;99.90;;;;;;4995467;28;20048;-87
2023/04/01 02:10:53;;;;;;;702.63;361.85;;;15.70;99.90;;;;;;4981785;28;20050;-86
2023/04/01 02:13:28;;;;;;;1202.75;546.65;;;13.60;99.90;;;;;;4993813;28;20077;-87
2023/04/01 02:15:59;;;;;;;611.22;404.52;;;12.20;99.90;;;;;;5002327;28;20057;-86
2023/04/01 02:18:25;;;;;;;620.85;430.45;;;15.30;99.90;;;;;;4976125;28;20413;-86
2023/04/01 02:20:51;;;;;;;916.17;472.35;;;13.80;99.90;;;;;;4974454;28;20061;-87
2023/04/01 02:23:17;;;;;;;940.60;433.23;;;17.10;99.90;;;;;;4991848;28;20088;-87
2023/04/01 02:25:44;;;;;;;333.05;266.73;;;13.00;99.90;;;;;;4998542;28;20041;-87
2023/04/01 02:28:13;;;;;;;1013.70;539.25;;;17.30;99.90;;;;;;5010967;28;20057;-87
2023/04/01 02:30:42;;;;;;;883.10;478.92;;;16.30;99.90;;;;;;4998367;28;20043;-87
2023/04/01 02:33:08;;;;;;;611.88;426.95;;;12.10;99.90;;;;;;4975323;28;20054;-87
2023/04/01 02:35:37;;;;;;;1166.75;579.30;;;17.40;99.90;;;;;;4977674;28;20038;-87
2023/04/01 02:38:03;;;;;;;1399.22;555.17;;;12.80;99.90;;;;;;5010377;28;20490;-87
2023/04/01 02:40:29;;;;;;;1471.72;587.58;;;14.90;99.90;;;;;;5010054;28;20042;-87
2023/04/01 02:42:54;;;;;;;1390.22;562.08;;;15.90;99.90;;;;;;4994526;28;20042;-87
2023/04/01 02:45:20;;;;;;;1241.65;481.95;;;17.10;99.90;;;;;;4990208;28;20034;-87
2023/04/01 02:47:46;;;;;;;857.75;477.90;;;17.70;99.90;;;;;;4992042;28;20580;-87
2023/04/01 02:50:11;;;;;;;695.67;397.98;;;14.70;99.90;;;;;;5009392;28;20049;-87
2023/04/01 02:52:37;;;;;;;1531.15;568.75;;;16.30;99.90;;;;;;4994075;28;20126;-87
2023/04/01 02:55:04;;;;;;;888.70;498.95;;;18.70;99.90;;;;;;5010625;28;20064;-87
2023/04/01 02:57:30;;;;;;;1249.55;532.47;;;13.10;99.90;;;;;;5010667;28;20121;-87
2023/04/01 02:59:55;;;;;;;1211.28;555.53;;;12.30;99.90;;;;;;4975842;28;20136;-87
2023/04/01 03:02:21;;;;;;;1699.97;617.53;;;14.30;99.90;;;;;;4974597;28;20042;-87
2023/04/01 03:04:47;;;;;;;1064.43;501.15;;;16.10;99.90;;;;;;4991277;28;20294;-87
2023/04/01 03:07:12;;;;;;;828.03;506.33;;;17.10;99.90;;;;;;4973528;28;20065;-87
2023/04/01 03:09:39;;;;;;;1458.80;557.08;;;16.80;99.90;;;;;;4975341;28;20104;-87
2023/04/01 03:12:05;;;;;;;1110.35;544.95;;;15.40;99.90;;;;;;4990911;28;20070;-87
2023/04/01 03:14:31;;;;;;;1805.18;584.33;;;14.60;99.90;;;;;;4978080;28;20049;-87
2023/04/01 03:16:56;;;;;;;1352.43;565.90;;;17.20;99.90;;;;;;4979854;28;20399;-87
2023/04/01 03:19:22;;;;;;;1937.80;615.92;;;17.50;99.90;;;;;;4974979;28;20038;-87
2023/04/01 03:21:47;;;;;;;1937.47;608.47;;;12.20;99.90;;;;;;4984203;28;20033;-87
2023/04/01 03:24:13;;;;;;;1928.22;565.90;;;16.70;99.90;;;;;;4980823;28;20045;-87
2023/04/01 03:26:39;;;;;;;1947.82;627.90;;;13.40;99.90;;;;;;4985498;28;20121;-87
2023/04/01 03:29:04;;;;;;;1859.55;610.22;;;16.60;99.90;;;;;;4974341;28;20038;-87
2023/04/01 03:31:30;;;;;;;1358.82;504.42;;;12.20;99.90;;;;;;4990151;28;20046;-87
2023/04/01 03:33:56;;;;;;;1612.13;499.08;;;15.50;99.90;;;;;;4990587;28;20038;-87
2023/04/01 03:36:21;;;;;;;1247.60;571.53;;;13.90;99.90;;;;;;4972511;28;20125;-87
2023/04/01 03:38:47;;;;;;;1725.65;554.00;;;13.30;99.90;;;;;;4997033;28;20045;-87
2023/04/01 03:41:15;;;;;;;1191.18;465.38;;;18.60;99.90;;;;;;5009825;28;20034;-87
2023/04/01 03:43:41;;;;;;;1879.00;657.00;;;16.50;99.90;;;;;;4993659;28;20045;-87
2023/04/01 03:46:06;;;;;;;1940.38;589.05;;;17.40;99.90;;;;;;4989997;28;20618;-87
2023/04/01 03:48:32;;;;;;;1999.90;680.95;;;12.40;99.90;;;;;;4975786;28;20058;-86
2023/04/01 03:50:58;;;;;;;1655.28;499.58;;;13.10;99.90;;;;;;4972507;28;20100;-87
2023/04/01 03:53:23;;;;;;;1822.05;507.08;;;16.30;99.90;;;;;;4974088;28;20111;-87
2023/04/01 03:55:51;;;;;;;1615.20;598.78;;;13.40;99.90;;;;;;4974126;28;20100;-87
2023/04/01 03:58:16;;;;;;;1102.70;515.95;;;12.60;99.90;;;;;;5007990;28;20050;-87
2023/04/01 04:00:42;;;;;;;716.72;444.27;;;17.40;99.90;;;;;;5008756;28;20033;-87
2023/04/01 04:03:08;;;;;;;1543.63;591.10;;;12.10;99.90;;;;;;4993623;28;20083;-87
2023/04/01 04:05:34;;;;;;;1670.45;539.55;;;16.20;99.90;;;;;;5008292;28;20042;-87
2023/04/01 04:07:59;;;;;;;1346.05;477.08;;;17.50;99.90;;;;;;4990930;28;20499;-87
2023/04/01 04:10:25;;;;;;;1713.78;564.75;;;15.60;99.90;;;;;;4973679;28;20425;-87
2023/04/01 04:12:51;;;;;;;1372.40;590.13;;;13.60;99.90;;;;;;4973628;28;20053;-86
2023/04/01 04:15:17;;;;;;;992.67;543.50;;;13.10;99.90;;;;;;4974175;28;20042;-87
2023/04/01 04:17:44;;;;;;;1796.25;580.05;;;18.00;99.90;;;;;;4988262;28;20092;-87
2023/04/01 04:20:10;;;;;;;691.33;411.20;;;16.30;99.90;;;;;;4989667;28;20042;-86
2023/04/01 04:22:36;;;;;;;1735.60;613.72;;;13.90;99.90;;;;;;4992474;28;20099;-86
2023/04/01 04:25:01;;;;;;;928.67;480.58;;;12.20;99.90;;;;;;4992627;28;20485;-86
2023/04/01 04:27:27;;;;;;;628.63;370.70;;;16.40;99.90;;;;;;5009215;28;20147;-86
2023/04/01 04:29:52;;;;;;;1107.20;553.10;;;15.20;99.90;;;;;;4981550;28;20034;-86
2023/04/01 04:32:18;;;;;;;768.70;470.92;;;17.10;99.90;;;;;;4989135;28;20129;-87
2023/04/01 04:34:43;;;;;;;1250.47;570.05;;;18.30;99.90;;;;;;4989509;28;20053;-86
2023/04/01 04:37:09;;;;;;;887.42;501.52;;;12.30;99.90;;;;;;4989738;28;20115;-86
2023/04/01 04:39:35;;;;;;;890.30;458.55;;;17.30;99.90;;;;;;4988723;28;20044;-86
2023/04/01 04:42:00;;;;;;;846.75;466.83;;;17.40;99.90;;;;;;4995807;28;20130;-87
2023/04/01 04:44:26;;;;;;;1395.10;560.33;;;15.90;99.90;;;;;;5012142;28;20045;-87
2023/04/01 04:46:52;;;;;;;828.50;477.05;;;17.60;99.90;;;;;;4995869;28;20044;-87
2023/04/01 04:49:17;;;;;;;1274.65;526.35;;;13.80;99.90;;;;;;5008712;28;20044;-86
2023/04/01 04:51:43;;;;;;;1688.00;608.47;;;12.00;99.90;;;;;;4979148;28;20117;-86
2023/04/01 04:54:09;;;;;;;1381.35;611.08;;;14.60;99.90;;;;;;4980344;28;20494;-87
2023/04/01 04:56:35;;;;;;;1107.68;551.78;;;15.80;99.90;;;;;;4997163;28;20048;-86
2023/04/01 04:59:01;;;;;;;1805.90;609.67;;;12.10;99.90;;;;;;4999851;28;20520;-86
2023/04/01 05:01:27;;;;;;;1689.55;561.80;;;14.10;99.90;;;;;;4980072;28;20037;-87
2023/04/01 05:03:52;;;;;;;1032.43;518.85;;;13.40;99.90;;;;;;4996405;28;20033;-87
2023/04/01 05:06:18;;;;;;;1473.47;626.38;;;12.10;99.90;;;;;;4994818;28;20042;-87
2023/04/01 05:08:44;;;;;;;672.38;391.33;;;12.20;99.90;;;;;;4980171;28;20133;-87
2023/04/01 05:11:13;;;;;;;1047.85;501.92;;;12.30;99.90;;;;;;5012488;28;20041;-87
2023/04/01 05:13:39;;;;;;;566.33;380.83;;;14.80;99.90;;;;;;4999322;28;20106;-87
2023/04/01 05:16:09;;;;;;;1115.47;547.25;;;13.00;99.90;;;;;;4987857;28;20041;-87
2023/04/01 05:18:35;;;;;;;1229.65;532.33;;;13.00;99.90;;;;;;5009929;28;20059;-86
2023/04/01 05:21:00;;;;;;;1412.97;515.75;;;14.20;99.90;;;;;;4991815;28;20038;-87
2023/04/01 05:23:26;;;;;;;1354.35;553.25;;;13.70;99.90;;;;;;4982252;28;20405;-87
2023/04/01 05:25:52;;;;;;;946.10;448.70;;;15.90;99.90;;;;;;4981240;28;20120;-86
2023/04/01 05:28:19;;;;;;;922.47;519.95;;;13.20;99.90;;;;;;5003308;28;20042;-86
2023/04/01 05:30:45;;;;;;;1258.50;513.65;;;15.50;99.90;;;;;;4990581;28;20041;-86
2023/04/01 05:33:12;;;;;;;1648.80;566.00;;;15.80;99.90;;;;;;4984440;28;20056;-87
2023/04/01 05:35:38;;;;;;;1312.70;519.28;;;15.20;99.90;;;;;;5004544;28;20504;-87
2023/04/01 05:38:04;;;;;;;1374.47;577.13;;;16.60;99.90;;;;;;4989803;28;20057;-86
2023/04/01 05:40:30;;;;;;;1334.75;568.78;;;17.20;99.90;;;;;;4984856;28;20033;-87
2023/04/01 05:42:56;;;;;;;806.10;498.23;;;14.40;99.90;;;;;;5006543;28;20045;-87
2023/04/01 05:45:22;;;;;;;586.53;402.30;;;15.20;99.90;;;;;;4986184;28;20044;-87
2023/04/01 05:47:47;;;;;;;1304.78;533.35;;;13.70;99.90;;;;;;4992363;28;20034;-87
2023/04/01 05:50:13;;;;;;;757.10;450.75;;;13.70;99.90;;;;;;4999454;28;20394;-87
2023/04/01 05:52:39;;;;;;;419.88;295.58;;;14.60;99.90;;;;;;4981069;28;20509;-87
2023/04/01 05:55:05;;;;;;;554.40;385.63;;;13.90;99.90;;;;;;5001293;28;20037;-87
2023/04/01 05:57:31;;;;;;;661.83;462.13;;;16.00;99.90;;;;;;4982081;28;20599;-87
2023/04/01 05:59:57;;;;;;;684.30;431.80;;;13.10;99.90;;;;;;4979471;28;20050;-87
2023/04/01 06:02:23;;;;;;;721.97;425.02;;;14.20;99.90;;;;;;4985954;28;20061;-87
2023/04/01 06:04:49;;;;;;;629.85;364.40;;;13.20;99.90;;;;;;5002435;28;20073;-87
2023/04/01 06:07:16;;;;;;;480.70;341.50;;;13.50;99.90;;;;;;4984777;28;20072;-87
2023/04/01 06:09:44;;;;;;;417.45;324.40;;;15.50;99.90;;;;;;5003535;28;20090;-87
2023/04/01 06:12:27;;;;;;;714.60;372.38;;;13.80;99.90;;;;;;5001177;28;20046;-87
2023/04/01 06:14:53;;;;;;;644.90;429.92;;;13.70;99.90;;;;;;4984522;28;20053;-87
2023/04/01 06:17:43;;;;;;;541.10;360.38;;;15.70;99.90;;;;;;4983648;28;20041;-87
2023/04/01 06:20:43;;;;;;;982.75;480.02;;;13.90;99.90;;;;;;5010372;28;20120;-87
2023/04/01 06:23:32;;;;;;;948.80;470.05;;;15.90;99.90;;;;;;4985456;28;20111;-86
2023/04/01 06:26:23;;;;;;;1957.43;645.30;;;14.00;99.90;;;;;;5001678;28;20034;-87
2023/04/01 06:29:15;;;;;;;1265.20;466.55;;;15.30;99.90;;;;;;4992216;28;20041;-87
2023/04/01 06:32:22;;;;;;;458.73;340.27;;;13.10;99.90;;;;;;4945688;28;20609;-87
2023/04/01 06:35:18;;;;;;;;;;;13.00;99.90;;;;;;4986510;28;20033;-87
2023/04/01 06:37:49;;;;;;;644.65;412.77;;;13.00;99.90;;;;;;4983577;28;19979;-87
2023/04/01 06:40:47;;;;;;;519.75;319.08;;;14.30;99.90;;;;;;4999640;28;20104;-87
2023/04/01 06:44:04;;;;;;;888.85;440.85;;;15.80;99.90;;;;;;4985606;28;20050;-87
2023/04/01 06:46:55;;;;;;;1609.72;522.42;;;16.10;99.90;;;;;;4933767;29;20042;-87
2023/04/01 06:49:39;;;;;;;1469.90;488.83;;;15.50;99.90;;;;;;4931792;29;20054;-87
2023/04/01 06:52:32;;;;;;;1454.05;573.40;;;14.40;99.90;;;;;;4976122;28;20539;-87
2023/04/01 06:55:12;;;;;;;711.20;429.15;;;13.80;99.90;;;;;;5001725;28;20045;-87
2023/04/01 06:57:43;;;;;;;1306.25;500.38;;;14.10;99.90;;;;;;5004611;28;20038;-87
2023/04/01 07:00:27;;;;;;;1035.07;541.03;;;17.60;99.90;;;;;;4997146;28;20045;-86
2023/04/01 07:03:02;;;;;;;1193.07;543.40;;;14.70;99.90;;;;;;4997977;28;20485;-87
2023/04/01 07:05:35;;;;;;;1377.28;571.42;;;14.00;99.90;;;;;;4991920;28;20444;-87
2023/04/01 07:08:17;;;;;;;1331.32;559.55;;;15.00;99.90;;;;;;4999326;28;20041;-87
2023/04/01 07:10:51;;;;;;;732.63;396.20;;;16.10;99.90;;;;;;5003018;28;20041;-87
2023/04/01 07:13:46;;;;;;;1832.22;538.35;;;15.90;99.90;;;;;;4999687;28;20048;-86
2023/04/01 07:16:14;;;;;;;1582.07;523.15;;;13.40;99.90;;;;;;4983506;28;20572;-87
2023/04/01 07:18:42;;;;;;;1999.90;593.45;;;16.60;99.90;;;;;;4982109;28;20057;-87
2023/04/01 07:21:24;;;;;;;1670.60;428.25;;;13.40;99.90;;;;;;4994006;28;20030;-87
2023/04/01 07:23:51;;;;;;;1592.93;394.17;;;14.30;99.90;;;;;;4998516;28;20064;-87
2023/04/01 07:26:20;;;;;;;1999.90;666.35;;;16.00;99.90;;;;;;5000913;28;20493;-87
2023/04/01 07:28:46;;;;;;;1942.20;452.20;;;14.90;99.90;;;;;;4988794;28;20377;-87
2023/04/01 07:31:30;;;;;;;1642.90;505.80;;;16.00;99.90;;;;;;5000837;28;20052;-86
2023/04/01 07:34:20;;;;;;;1798.03;542.75;;;16.10;99.90;;;;;;5003969;28;20125;-87
2023/04/01 07:36:57;;;;;;;1085.45;417.45;;;13.90;99.90;;;;;;5001979;28;20503;-87
2023/04/01 07:39:51;;;;;;;1999.90;556.47;;;15.90;99.90;;;;;;4993803;28;20792;-87
2023/04/01 07:42:54;;;;;;;1594.03;462.05;;;16.60;99.90;;;;;;5011890;28;20045;-87
2023/04/01 07:45:41;;;;;;;1578.07;511.23;;;13.30;99.90;;;;;;4982613;28;20043;-87
2023/04/01 07:48:25;;;;;;;868.30;414.17;;;14.30;99.90;;;;;;5006370;28;20045;-87
2023/04/01 07:51:01;;;;;;;1799.72;522.40;;;13.30;99.90;;;;;;4993110;28;20037;-87
2023/04/01 07:53:39;;;;;;;1999.90;586.75;;;14.20;99.90;;;;;;5012048;28;20041;-86
2023/04/01 07:56:11;;;;;;;1946.57;499.70;;;14.60;99.90;;;;;;4995983;28;20044;-87
2023/04/01 07:59:19;;;;;;;795.00;354.67;;;16.50;99.90;;;;;;4996495;28;20042;-87
2023/04/01 08:02:03;;;;;;;1780.60;566.30;;;16.40;99.90;;;;;;5005820;28;20504;-87
2023/04/01 08:05:00;;;;;;;1073.00;422.02;;;14.20;99.90;;;;;;5021824;28;20084;-87
2023/04/01 08:07:34;;;;;;;1976.25;539.75;;;13.20;99.90;;;;;;4990472;28;20494;-87
2023/04/01 08:10:26;;;;;;;1899.65;555.03;;;16.10;99.90;;;;;;5010498;28;20134;-86
2023/04/01 08:13:29;;;;;;;1999.90;642.97;;;14.00;99.90;;;;;;4997938;28;20052;-87
2023/04/01 08:16:14;;;;;;;1999.90;657.67;;;15.00;99.90;;;;;;5000944;28;20145;-87
2023/04/01 08:19:03;;;;;;;422.40;311.02;;;14.10;99.90;;;;;;5001234;28;20129;-87
2023/04/01 08:21:38;;;;;;;455.90;310.45;;;14.00;99.90;;;;;;5005330;28;20065;-87
2023/04/01 08:24:23;;;;;;;444.08;351.63;;;13.80;99.90;;;;;;4976336;28;20046;-87
2023/04/01 08:26:55;;;;;;;716.60;397.83;;;14.70;99.90;;;;;;4992403;28;20046;-87
2023/04/01 08:29:25;;;;;;;941.15;368.98;;;16.10;99.90;;;;;;4977509;28;20038;-87
2023/04/01 08:32:03;;;;;;;1308.10;492.10;;;15.80;99.90;;;;;;4982038;28;20033;-87
2023/04/01 08:34:36;;;;;;;1358.35;531.28;;;17.00;99.90;;;;;;4995945;28;20496;-87
2023/04/01 08:37:07;;;;;;;647.45;422.02;;;13.80;99.90;;;;;;4986365;28;20493;-86
2023/04/01 08:39:44;;;;;;;951.03;415.02;;;16.30;99.90;;;;;;5012440;28;20046;-87
2023/04/01 08:42:28;;;;;;;601.78;370.25;;;18.00;99.90;;;;;;5012434;28;20045;-87
2023/04/01 08:45:05;;;;;;;430.98;314.08;;;13.90;99.90;;;;;;5011231;28;20037;-87
2023/04/01 08:47:54;;;;;;;1047.18;428.92;;;16.70;99.90;;;;;;4976347;28;20048;-87
2023/04/01 08:50:26;;;;;;;1317.22;473.60;;;13.40;99.90;;;;;;4998853;28;20080;-87
2023/04/01 08:53:10;;;;;;;758.05;389.00;;;15.60;99.90;;;;;;4978774;28;20037;-86
2023/04/01 08:55:55;;;;;;;593.80;333.45;;;16.60;99.90;;;;;;4984542;28;20564;-87
2023/04/01 08:58:45;;;;;;;841.13;436.33;;;16.80;99.90;;;;;;4995174;28;20373;-89
2023/04/01 09:01:42;;;;;;;631.80;395.65;;;13.90;99.90;;;;;;4980028;28;20501;-89
2023/04/01 09:04:23;;;;;;;1999.90;582.45;;;14.40;99.90;;;;;;4983559;28;20485;-90
2023/04/01 09:06:58;;;;;;;1034.68;422.45;;;16.50;99.90;;;;;;5002343;28;20065;-87
2023/04/01 09:09:54;;;;;;;1582.63;435.40;;;13.80;99.90;;;;;;4984969;28;20541;-89
2023/04/01 09:12:48;;;;;;;1576.70;540.72;;;14.60;99.90;;;;;;4996041;28;20053;-89
2023/04/01 09:15:36;;;;;;;1097.97;457.77;;;15.10;99.90;;;;;;4980930;28;20145;-88
2023/04/01 09:18:11;;;;;;;635.13;322.98;;;14.30;99.90;;;;;;4983289;28;20049;-89
2023/04/01 09:21:02;;;;;;;598.30;364.88;;;16.90;99.90;;;;;;4992269;28;20037;-88
2023/04/01 09:23:40;;;;;;;366.45;291.90;;;17.50;99.90;;;;;;4999289;28;20049;-89
2023/04/01 09:26:05;;;;;;;725.38;323.80;;;16.60;99.90;;;;;;4990313;28;20372;-88
2023/04/01 09:28:56;;;;;;;465.27;307.08;;;14.40;99.90;;;;;;4992131;28;20107;-89
2023/04/01 09:31:40;;;;;;;461.10;339.88;;;14.10;99.90;;;;;;4993726;28;20116;-88
2023/04/01 09:34:23;;;;;;;534.25;271.67;;;17.30;99.90;;;;;;4987763;28;20045;-89
2023/04/01 09:37:17;;;;;;;328.80;263.85;;;17.20;99.90;;;;;;4979331;28;20617;-87
2023/04/01 09:39:54;;;;;;;498.58;341.15;;;15.80;99.90;;;;;;4991229;28;20512;-87
2023/04/01 09:42:44;;;;;;;455.20;341.42;;;14.30;99.90;;;;;;5006596;28;20033;-88
2023/04/01 09:45:55;;;;;;;592.60;319.85;;;16.90;99.90;;;;;;4996034;28;20042;-89
2023/04/01 09:48:23;;;;;;;424.05;277.35;;;15.90;99.90;;;;;;4962948;28;20096;-89
2023/04/01 09:51:08;;;;;;;605.67;371.85;;;15.10;99.90;;;;;;4984992;28;20503;-88
2023/04/01 09:53:59;;;;;;;391.27;285.98;;;19.10;99.90;;;;;;5010366;28;20124;-86
2023/04/01 09:57:08;;;;;;;521.25;278.63;;;15.10;99.90;;;;;;4995228;28;20048;-88
2023/04/01 10:00:04;;;;;;;415.10;294.20;;;13.80;99.90;;;;;;5011416;28;20604;-88
2023/04/01 10:02:46;;;;;;;469.02;298.95;;;14.30;99.90;;;;;;5000043;28;20042;-88
2023/04/01 10:05:55;;;;;;;746.72;268.10;;;15.40;99.90;;;;;;5007329;28;20052;-88
2023/04/01 10:08:52;;;;;;;252.52;189.02;;;14.90;99.90;;;;;;4974419;28;20528;-87
2023/04/01 10:12:08;;;;;;;314.92;251.98;;;14.10;99.90;;;;;;4989623;28;20038;-88
2023/04/01 10:14:52;;;;;;;385.42;282.33;;;17.90;99.90;;;;;;5010290;28;20156;-88
2023/04/01 10:17:30;;;;;;;295.08;232.05;;;14.40;99.90;;;;;;5000441;28;20528;-89
2023/04/01 10:20:05;;;;;;;371.13;248.43;;;16.90;99.90;;;;;;4985862;28;20042;-89
2023/04/01 10:22:56;;;;;;;416.60;323.30;;;14.50;99.90;;;;;;5009570;28;20045;-89
2023/04/01 10:25:27;;;;;;;324.83;220.45;;;16.50;99.90;;;;;;5009433;28;20056;-88
2023/04/01 10:28:08;;;;;;;384.35;258.55;;;16.20;99.90;;;;;;4996002;28;20103;-88
2023/04/01 10:30:51;;;;;;;388.50;260.75;;;15.10;99.90;;;;;;4997694;28;20048;-89
2023/04/01 10:33:36;;;;;;;294.02;247.43;;;17.40;99.90;;;;;;5003532;28;20120;-89
2023/04/01 10:36:13;;;;;;;234.82;207.98;;;13.70;99.90;;;;;;4990977;28;20076;-88
2023/04/01 10:38:58;;;;;;;333.20;247.30;;;16.70;99.90;;;;;;4994267;28;20062;-88
2023/04/01 10:41:57;;;;;;;327.02;275.33;;;13.70;99.90;;;;;;5011186;28;20104;-89
2023/04/01 10:44:57;;;;;;;411.25;238.07;;;17.40;99.90;;;;;;5008540;28;20501;-88
2023/04/01 10:47:53;;;;;;;269.10;225.00;;;16.20;99.90;;;;;;5001264;28;20056;-88
2023/04/01 10:50:46;;;;;;;436.00;252.27;;;16.00;99.90;;;;;;5006096;28;20042;-88
2023/04/01 10:53:30;;;;;;;354.25;242.65;;;16.50;99.90;;;;;;4983084;28;20049;-88
2023/04/01 10:56:23;;;;;;;396.48;274.92;;;13.80;99.90;;;;;;4996198;28;20065;-87
2023/04/01 10:59:11;;;;;;;348.95;274.00;;;17.30;99.90;;;;;;4980004;28;20038;-81
2023/04/01 11:02:12;;;;;;;314.27;269.95;;;13.70;99.90;;;;;;4999322;28;20038;-81
2023/04/01 11:04:56;;;;;;;280.20;249.77;;;16.50;99.90;;;;;;4989343;28;20394;-81
2023/04/01 11:07:55;;;;;;;332.15;258.63;;;16.50;99.90;;;;;;4973158;28;20555;-81
2023/04/01 11:10:26;;;;;;;299.27;246.15;;;15.00;99.90;;;;;;4975736;28;20042;-80
2023/04/01 11:12:52;;;;;;;350.67;254.38;;;16.20;99.90;;;;;;4974501;28;20116;-80
2023/04/01 11:15:39;;;;;;;457.55;270.13;;;14.10;99.90;;;;;;4980375;28;20049;-81
2023/04/01 11:18:26;;;;;;;407.45;276.13;;;17.10;99.90;;;;;;4979725;28;20540;-80
2023/04/01 11:20:51;;;;;;;;;;;15.60;99.90;;;;;;5001814;28;20405;-81
2023/04/01 11:23:41;;;;;;;456.53;284.30;;;14.80;99.90;;;;;;5010315;28;19921;-81
2023/04/01 11:26:46;;;;;;;318.92;225.40;;;14.00;99.90;;;;;;4997735;28;20061;-81
2023/04/01 11:29:45;;;;;;;278.88;248.43;;;16.80;99.90;;;;;;4994014;28;20042;-81
2023/04/01 11:32:29;;;;;;;502.90;274.08;;;16.90;99.90;;;;;;4976863;28;20046;-80
2023/04/01 11:35:13;;;;;;;409.45;235.45;;;16.70;99.90;;;;;;4983627;28;20416;-80
2023/04/01 11:37:54;;;;;;;331.98;237.10;;;15.60;99.90;;;;;;4988165;28;20046;-80
2023/04/01 11:40:31;;;;;;;314.33;246.98;;;14.70;99.90;;;;;;5003165;28;20048;-80
2023/04/01 11:43:21;;;;;;;305.02;266.20;;;14.80;99.90;;;;;;4991259;28;20140;-80
2023/04/01 11:46:02;;;;;;;361.63;271.52;;;16.00;99.90;;;;;;4996786;28;20386;-80
2023/04/01 11:48:27;;;;;;;300.85;261.85;;;15.50;99.90;;;;;;4995239;28;20525;-80
2023/04/01 11:51:04;;;;;;;469.73;284.35;;;14.90;99.90;;;;;;4991440;28;20038;-80
2023/04/01 11:53:55;;;;;;;327.90;230.45;;;15.40;99.90;;;;;;4987936;28;20038;-80
2023/04/01 11:56:48;;;;;;;387.63;267.13;;;15.40;99.90;;;;;;5003491;28;20046;-81
2023/04/01 11:59:32;;;;;;;365.98;239.88;;;16.30;99.90;;;;;;5003759;28;20042;-80
2023/04/01 12:02:34;;;;;;;264.67;203.73;;;15.60;99.90;;;;;;4994749;28;20042;-80
2023/04/01 12:05:23;;;;;;;326.00;231.48;;;13.20;99.90;;;;;;4990745;28;20046;-80
2023/04/01 12:08:07;;;;;;;223.35;180.40;;;15.60;99.90;;;;;;4989645;28;20050;-80
2023/04/01 12:10:40;;;;;;;281.50;218.80;;;13.40;99.90;;;;;;4989613;28;20070;-81
2023/04/01 12:13:34;;;;;;;379.15;236.15;;;14.00;99.90;;;;;;4977464;28;20077;-81
2023/04/01 12:16:12;;;;;;;411.33;267.77;;;15.50;99.90;;;;;;4948592;28;20046;-81
2023/04/01 12:19:16;;;;;;;333.83;286.42;;;13.60;99.90;;;;;;4974253;28;20043;-81
2023/04/01 12:21:59;;;;;;;355.85;244.80;;;15.20;99.90;;;;;;4992295;28;20050;-81
2023/04/01 12:24:43;;;;;;;319.02;227.40;;;14.30;99.90;;;;;;4974398;28;20042;-81
2023/04/01 12:27:08;;;;;;;314.98;228.73;;;13.70;99.90;;;;;;5007040;28;20042;-81
2023/04/01 12:30:13;;;;;;;412.48;278.67;;;17.50;99.90;;;;;;5004794;28;20050;-81
2023/04/01 12:32:49;;;;;;;287.20;236.60;;;15.60;99.90;;;;;;4945350;28;20092;-81
2023/04/01 12:35:26;;;;;;;498.45;330.67;;;16.40;99.90;;;;;;4975691;28;20042;-81
2023/04/01 12:38:30;;;;;;;263.23;207.73;;;13.40;99.90;;;;;;4992964;28;20046;-81
2023/04/01 12:41:36;;;;;;;377.05;244.10;;;13.60;99.90;;;;;;4990842;28;20041;-81
2023/04/01 12:44:23;;;;;;;467.80;254.45;;;15.50;99.90;;;;;;4974542;28;20034;-81
2023/04/01 12:47:04;;;;;;;202.85;177.43;;;14.80;99.90;;;;;;4973250;28;20066;-80
2023/04/01 12:49:38;;;;;;;365.42;246.15;;;14.10;99.90;;;;;;4992020;28;20042;-81
2023/04/01 12:52:29;;;;;;;231.18;194.07;;;15.50;99.90;;;;;;4989220;28;20042;-81